Time,TemperatureF,DewpointF,PressureIn,WindDirection,WindDirectionDegrees,WindSpeedMPH,WindSpeedGustMPH,Humidity,HourlyPrecipIn,Conditions,Clouds,dailyrainin,SoftwareType,DateUTC
2013-04-23 00:00:00,49.0,-99.9,-100.00,WSW,239,9.0,12.0,-999,-99.99,,,-99.99,,2013-04-23 07:00:00,
2013-04-23 01:00:00,48.0,-99.9,-100.00,WSW,256,8.0,12.0,-999,-99.99,,,-99.99,,2013-04-23 08:00:00,
2013-04-23 03:03:00,46.0,-99.9,-100.00,WSW,241,13.0,16.0,-999,-99.99,,,-99.99,,2013-04-23 10:03:00,
2013-04-23 04:03:00,47.0,-99.9,-100.00,WSW,255,12.0,13.0,-999,-99.99,,,-99.99,,2013-04-23 11:03:00,
2013-04-23 05:02:00,41.0,-99.9,-100.00,South,182,8.0,12.0,-999,-99.99,,,-99.99,,2013-04-23 12:02:00,
2013-04-23 06:02:00,38.0,-99.9,-100.00,South,173,12.0,15.0,-999,-99.99,,,-99.99,,2013-04-23 13:02:00,
2013-04-23 06:12:00,38.0,-99.9,-100.00,South,173,12.0,15.0,-999,-99.99,,,-99.99,,2013-04-23 13:12:00,
2013-04-23 08:02:00,38.0,-99.9,-100.00,SE,146,13.0,14.0,-999,-99.99,,,-99.99,,2013-04-23 15:02:00,
2013-04-23 08:12:00,38.0,-99.9,-100.00,SE,146,13.0,14.0,-999,-99.99,,,-99.99,,2013-04-23 15:12:00,
2013-04-23 09:03:00,39.0,-99.9,-100.00,SSE,160,10.0,12.0,-999,-99.99,,,-99.99,,2013-04-23 16:03:00,
2013-04-23 09:13:00,39.0,-99.9,-100.00,SSE,160,10.0,12.0,-999,-99.99,,,-99.99,,2013-04-23 16:13:00,
2013-04-23 10:03:00,47.0,-99.9,-100.00,SE,124,5.0,9.0,-999,-99.99,,,-99.99,,2013-04-23 17:03:00,
2013-04-23 10:12:00,47.0,-99.9,-100.00,SE,124,5.0,9.0,-999,-99.99,,,-99.99,,2013-04-23 17:12:00,
2013-04-23 12:02:00,57.0,-99.9,-100.00,SE,139,10.0,16.0,-999,-99.99,,,-99.99,,2013-04-23 19:02:00,
2013-04-23 12:11:00,57.0,-99.9,-100.00,SE,139,10.0,16.0,-999,-99.99,,,-99.99,,2013-04-23 19:11:00,
2013-04-23 13:02:00,59.0,-99.9,-100.00,SE,138,8.0,17.0,-999,-99.99,,,-99.99,,2013-04-23 20:02:00,
2013-04-23 13:11:00,59.0,-99.9,-100.00,SE,138,8.0,17.0,-999,-99.99,,,-99.99,,2013-04-23 20:11:00,
2013-04-23 15:03:00,61.0,-99.9,-100.00,South,171,12.0,20.0,-999,-99.99,,,-99.99,,2013-04-23 22:03:00,
2013-04-23 15:12:00,61.0,-99.9,-100.00,South,171,12.0,20.0,-999,-99.99,,,-99.99,,2013-04-23 22:12:00,
2013-04-23 16:03:00,63.0,-99.9,-100.00,ESE,103,7.0,14.0,-999,-99.99,,,-99.99,,2013-04-23 23:03:00,
2013-04-23 16:12:00,63.0,-99.9,-100.00,ESE,103,7.0,14.0,-999,-99.99,,,-99.99,,2013-04-23 23:12:00,
2013-04-23 17:02:00,64.0,-99.9,-100.00,NNE,33,6.0,13.0,-999,-99.99,,,-99.99,,2013-04-24 00:02:00,
2013-04-23 17:12:00,64.0,-99.9,-100.00,NNE,33,6.0,13.0,-999,-99.99,,,-99.99,,2013-04-24 00:12:00,
2013-04-23 18:02:00,64.0,-99.9,-100.00,North,6,7.0,15.0,-999,-99.99,,,-99.99,,2013-04-24 01:02:00,
2013-04-23 18:12:00,64.0,-99.9,-100.00,North,6,7.0,15.0,-999,-99.99,,,-99.99,,2013-04-24 01:12:00,
2013-04-23 18:15:00,61.0,-99.9,-100.00,North,2,10.0,17.0,-999,-99.99,,,-99.99,,2013-04-24 01:15:00,
2013-04-23 19:02:00,61.0,-99.9,-100.00,North,2,10.0,17.0,-999,-99.99,,,-99.99,,2013-04-24 02:02:00,
2013-04-23 19:15:00,60.0,-99.9,-100.00,North,10,12.0,14.0,-999,-99.99,,,-99.99,,2013-04-24 02:15:00,
2013-04-23 20:13:00,60.0,-99.9,-100.00,North,10,12.0,14.0,-999,-99.99,,,-99.99,,2013-04-24 03:13:00,
2013-04-23 21:03:00,57.0,-99.9,-100.00,NE,56,6.0,9.0,-999,-99.99,,,-99.99,,2013-04-24 04:03:00,
2013-04-23 21:12:00,57.0,-99.9,-100.00,NE,56,6.0,9.0,-999,-99.99,,,-99.99,,2013-04-24 04:12:00,
2013-04-23 22:02:00,57.0,-99.9,-100.00,East,79,3.0,6.0,-999,-99.99,,,-99.99,,2013-04-24 05:02:00,
2013-04-23 23:02:00,58.0,-99.9,-100.00,SSE,151,3.0,3.0,-999,-99.99,,,-99.99,,2013-04-24 06:02:00,